createdAt,value
2023-03-28T00:07:40.079Z,-1.7
2023-03-28T00:17:40.009Z,-1.8
2023-03-28T00:27:39.976Z,-2
2023-03-28T00:37:39.965Z,-2.1
2023-03-28T00:47:39.937Z,-2
2023-03-28T00:57:39.905Z,-2
2023-03-28T01:07:39.886Z,-2.1
2023-03-28T01:17:39.880Z,-2.2
2023-03-28T01:27:39.846Z,-2.1
2023-03-28T01:37:39.823Z,-2.2
2023-03-28T01:47:39.799Z,-2.3
2023-03-28T01:57:39.795Z,-2.2
2023-03-28T02:07:39.779Z,-2.3
2023-03-28T02:17:39.750Z,-2.4
2023-03-28T02:27:39.743Z,-2.5
2023-03-28T02:37:39.714Z,-2.6
2023-03-28T02:47:39.717Z,-2.7
2023-03-28T02:57:39.689Z,-2.8
2023-03-28T03:07:39.678Z,-2.9
2023-03-28T03:17:39.646Z,-2.8
2023-03-28T03:27:39.622Z,-2.8
2023-03-28T03:37:39.714Z,-2.9
2023-03-28T03:47:39.581Z,-3
2023-03-28T03:57:39.565Z,-3
2023-03-28T04:07:39.589Z,-3
2023-03-28T04:17:39.539Z,-3
2023-03-28T04:27:39.498Z,-3
2023-03-28T04:37:39.509Z,-3.1
2023-03-28T04:47:39.488Z,-3.1
2023-03-28T04:57:39.461Z,-3.1
2023-03-28T05:07:39.426Z,-3
2023-03-28T05:17:39.405Z,-3.1
2023-03-28T05:27:39.401Z,-3
2023-03-28T05:37:39.383Z,-3
2023-03-28T05:47:39.362Z,-3.3
2023-03-28T05:57:39.336Z,-3
2023-03-28T06:07:39.316Z,-2.8
2023-03-28T06:17:39.323Z,-2.7
2023-03-28T06:27:39.283Z,-2.1
2023-03-28T06:37:39.286Z,-1.8
2023-03-28T06:47:39.232Z,-1
2023-03-28T06:57:39.216Z,-0.4
2023-03-28T07:07:39.236Z,0
2023-03-28T07:17:39.192Z,0.3
2023-03-28T07:27:39.159Z,0.6
2023-03-28T07:37:39.143Z,1
2023-03-28T07:47:39.113Z,1.4
2023-03-28T07:57:39.191Z,1.9
2023-03-28T08:07:39.106Z,2.3
2023-03-28T08:17:39.044Z,2.7
2023-03-28T08:27:39.007Z,3
2023-03-28T08:37:39.006Z,3.3
2023-03-28T08:47:38.989Z,3.8
2023-03-28T08:57:38.974Z,4.1
2023-03-28T09:07:38.970Z,4.5
2023-03-28T09:17:38.896Z,4.8
2023-03-28T09:27:38.858Z,5.2
2023-03-28T09:37:38.933Z,5.5
2023-03-28T09:47:38.803Z,5.7
2023-03-28T09:57:38.792Z,5.7
2023-03-28T10:07:38.776Z,5.9
2023-03-28T10:17:38.747Z,6.2
2023-03-28T10:27:38.741Z,6.6
2023-03-28T10:37:38.690Z,6.8
2023-03-28T10:47:38.640Z,6.8
2023-03-28T10:57:38.612Z,7
2023-03-28T11:07:38.600Z,7.2
2023-03-28T11:17:38.560Z,7.5
2023-03-28T11:28:26.316Z,7.5
2023-03-28T11:37:40.068Z,7.6
2023-03-28T11:47:39.974Z,7.9
2023-03-28T11:57:39.968Z,8
2023-03-28T12:07:39.914Z,8.1
2023-03-28T12:17:39.884Z,8.1
2023-03-28T12:27:39.920Z,8.5
2023-03-28T12:37:39.844Z,8.6
2023-03-28T12:47:39.806Z,8.6
2023-03-28T12:57:39.775Z,8.9
2023-03-28T13:07:39.738Z,8.9
2023-03-28T13:17:39.714Z,8.9
2023-03-28T13:27:39.675Z,9.1
2023-03-28T13:37:39.654Z,9.2
2023-03-28T13:47:39.616Z,9.1
2023-03-28T13:57:39.599Z,9.3
2023-03-28T14:07:39.559Z,9.5
2023-03-28T14:17:39.527Z,10.1
2023-03-28T14:27:39.496Z,10.2
2023-03-28T14:37:39.464Z,10.2
2023-03-28T14:47:39.446Z,10.2
2023-03-28T14:57:39.420Z,10.2
2023-03-28T15:07:39.403Z,10.3
2023-03-28T15:17:39.352Z,10.9
2023-03-28T15:27:39.319Z,10.6
2023-03-28T15:37:39.283Z,10.3
2023-03-28T15:47:39.247Z,10
2023-03-28T15:57:39.223Z,10.1
2023-03-28T16:07:39.233Z,10.1
2023-03-28T16:17:39.205Z,10.1
2023-03-28T16:27:39.131Z,9.9
2023-03-28T16:37:39.102Z,9.7
2023-03-28T16:47:39.064Z,9.6
2023-03-28T16:57:39.030Z,9.6
2023-03-28T17:07:39.046Z,9.5
2023-03-28T17:17:38.992Z,9.4
2023-03-28T17:27:38.951Z,9.2
2023-03-28T17:37:38.909Z,9.1
2023-03-28T17:47:38.907Z,9
2023-03-28T17:57:38.882Z,8.9
2023-03-28T18:07:38.864Z,8.8
2023-03-28T18:17:38.821Z,8.7
2023-03-28T18:27:38.775Z,8.6
2023-03-28T18:37:38.751Z,8.5
2023-03-28T18:47:38.742Z,8.5
2023-03-28T18:57:38.690Z,8.3
2023-03-28T19:07:38.660Z,8.2
2023-03-28T19:17:38.620Z,8.2
2023-03-28T19:27:38.608Z,7.6
2023-03-28T19:37:38.588Z,6.8
2023-03-28T19:47:38.538Z,6.2
2023-03-28T19:57:38.519Z,5.7
2023-03-28T20:07:38.481Z,5.5
2023-03-28T20:17:38.529Z,5.3
2023-03-28T20:27:38.433Z,5
2023-03-28T20:37:38.403Z,5
2023-03-28T20:47:38.373Z,4.9
2023-03-28T20:57:38.355Z,4.9
2023-03-28T21:07:38.315Z,4.8
2023-03-28T21:17:38.318Z,4.8
2023-03-28T21:27:38.272Z,4.7
2023-03-28T21:37:38.238Z,4.7
2023-03-28T21:47:38.215Z,4.7
2023-03-28T21:57:38.203Z,4.7
2023-03-28T22:07:38.159Z,4.7
2023-03-28T22:17:38.133Z,4.6
2023-03-28T22:27:38.119Z,4.6
2023-03-28T22:37:38.081Z,4.6
2023-03-28T22:47:38.067Z,4.6
2023-03-28T22:57:38.040Z,4.6
2023-03-28T23:07:38.006Z,4.6
2023-03-28T23:17:38.019Z,4.7
2023-03-28T23:27:37.948Z,4.7
2023-03-28T23:37:37.927Z,4.7
2023-03-28T23:47:37.904Z,4.7
2023-03-28T23:57:37.896Z,4.7
